createdAt,value
2023-05-03T00:00:47.312Z,8.20
2023-05-03T00:03:16.197Z,7.40
2023-05-03T00:05:45.402Z,9.20
2023-05-03T00:08:14.447Z,7.40
2023-05-03T00:10:44.411Z,9.00
2023-05-03T00:13:13.595Z,7.00
2023-05-03T00:15:42.189Z,6.60
2023-05-03T00:18:11.572Z,4.40
2023-05-03T00:20:40.246Z,5.00
2023-05-03T00:23:09.173Z,6.60
2023-05-03T00:25:37.874Z,6.00
2023-05-03T00:28:08.871Z,6.00
2023-05-03T00:30:37.613Z,5.40
2023-05-03T00:33:06.633Z,5.20
2023-05-03T00:35:35.322Z,6.60
2023-05-03T00:38:04.464Z,7.00
2023-05-03T00:40:33.658Z,5.20
2023-05-03T00:43:02.735Z,6.40
2023-05-03T00:45:34.680Z,6.40
2023-05-03T00:48:03.848Z,6.60
2023-05-03T00:50:32.736Z,5.20
2023-05-03T00:53:01.951Z,7.60
2023-05-03T00:55:31.692Z,6.00
2023-05-03T00:58:00.761Z,6.20
2023-05-03T01:00:29.660Z,5.80
2023-05-03T01:03:00.144Z,6.80
2023-05-03T01:05:32.947Z,8.00
2023-05-03T01:08:10.391Z,7.60
2023-05-03T01:10:47.921Z,6.80
2023-05-03T01:13:25.833Z,6.60
2023-05-03T01:16:00.999Z,6.60
2023-05-03T01:18:35.389Z,7.00
2023-05-03T01:21:05.477Z,6.20
2023-05-03T01:23:41.694Z,8.00
2023-05-03T01:26:21.779Z,6.80
2023-05-03T01:28:50.760Z,6.00
2023-05-03T01:31:25.287Z,10.20
2023-05-03T01:34:12.953Z,4.40
2023-05-03T01:36:45.544Z,10.40
2023-05-03T01:39:20.834Z,10.80
2023-05-03T01:41:52.324Z,8.60
2023-05-03T01:44:23.940Z,8.60
2023-05-03T01:46:52.640Z,8.80
2023-05-03T01:49:21.569Z,7.00
2023-05-03T01:51:50.175Z,7.60
2023-05-03T01:54:19.795Z,7.40
2023-05-03T01:56:48.518Z,5.80
2023-05-03T01:59:19.066Z,6.80
2023-05-03T02:01:47.832Z,5.00
2023-05-03T02:04:17.329Z,4.60
2023-05-03T02:06:46.195Z,9.00
2023-05-03T02:09:15.166Z,6.80
2023-05-03T02:11:44.020Z,5.40
2023-05-03T02:14:13.764Z,7.60
2023-05-03T02:16:44.235Z,7.20
2023-05-03T02:19:13.141Z,4.80
2023-05-03T02:21:41.716Z,5.40
2023-05-03T02:24:10.749Z,6.80
2023-05-03T02:26:39.382Z,7.00
2023-05-03T02:29:08.272Z,6.60
2023-05-03T02:31:36.857Z,7.20
2023-05-03T02:34:08.132Z,6.80
2023-05-03T02:36:36.775Z,5.60
2023-05-03T02:39:05.926Z,8.20
2023-05-03T02:41:35.346Z,5.00
2023-05-03T02:44:05.126Z,7.00
2023-05-03T02:46:33.794Z,6.80
2023-05-03T02:49:02.922Z,5.20
2023-05-03T02:51:33.220Z,7.40
2023-05-03T02:54:02.270Z,7.00
2023-05-03T02:56:30.937Z,7.00
2023-05-03T02:58:59.963Z,5.80
2023-05-03T03:01:29.914Z,10.00
2023-05-03T03:03:59.657Z,8.80
2023-05-03T03:06:28.444Z,5.00
2023-05-03T03:08:58.879Z,6.80
2023-05-03T03:11:29.218Z,8.20
2023-05-03T03:13:58.152Z,8.00
2023-05-03T03:16:28.849Z,6.00
2023-05-03T03:18:58.084Z,7.40
2023-05-03T03:21:29.134Z,6.00
2023-05-03T03:23:59.854Z,6.40
2023-05-03T03:26:28.618Z,6.00
2023-05-03T03:28:57.681Z,7.20
2023-05-03T03:31:26.760Z,6.40
2023-05-03T03:33:58.124Z,6.60
2023-05-03T03:36:30.876Z,7.80
2023-05-03T03:39:01.319Z,12.60
2023-05-03T03:41:31.005Z,8.20
2023-05-03T03:44:00.162Z,6.00
2023-05-03T03:46:28.848Z,6.00
2023-05-03T03:49:00.446Z,7.20
2023-05-03T03:51:31.689Z,4.60
2023-05-03T03:54:03.017Z,6.60
2023-05-03T03:56:36.694Z,6.60
2023-05-03T03:59:05.829Z,0.40
2023-05-03T04:01:35.018Z,8.40
2023-05-03T04:04:04.398Z,11.60
2023-05-03T04:06:33.775Z,4.60
2023-05-03T04:09:09.228Z,7.60
2023-05-03T04:11:38.531Z,6.00
2023-05-03T04:14:08.292Z,7.60
2023-05-03T04:16:37.087Z,6.80
2023-05-03T04:19:07.852Z,5.80
2023-05-03T04:21:40.375Z,5.40
2023-05-03T04:24:11.348Z,21.20
2023-05-03T04:26:41.170Z,7.20
2023-05-03T04:29:16.980Z,5.80
2023-05-03T04:31:47.624Z,6.80
2023-05-03T04:34:19.123Z,5.80
2023-05-03T04:36:50.607Z,7.60
2023-05-03T04:39:22.422Z,6.80
2023-05-03T04:41:51.100Z,6.20
2023-05-03T04:44:21.304Z,30.25
2023-05-03T04:46:51.758Z,11.00
2023-05-03T04:49:20.965Z,10.00
2023-05-03T04:51:49.540Z,4.20
2023-05-03T04:54:21.211Z,6.40
2023-05-03T04:56:50.376Z,7.00
2023-05-03T04:59:20.665Z,8.40
2023-05-03T05:01:49.588Z,10.60
2023-05-03T05:04:19.085Z,7.80
2023-05-03T05:06:52.907Z,9.00
2023-05-03T05:09:31.255Z,11.60
2023-05-03T05:12:02.170Z,10.60
2023-05-03T05:14:36.791Z,11.80
2023-05-03T05:17:07.711Z,11.00
2023-05-03T05:19:36.959Z,13.40
2023-05-03T05:22:06.143Z,14.00
2023-05-03T05:24:51.970Z,17.00
2023-05-03T05:27:21.696Z,17.60
2023-05-03T05:29:50.965Z,16.40
2023-05-03T05:32:22.437Z,18.40
2023-05-03T05:34:55.575Z,22.60
2023-05-03T05:37:27.544Z,23.60
2023-05-03T05:40:01.740Z,22.20
2023-05-03T05:42:36.623Z,24.20
2023-05-03T05:45:08.200Z,23.00
2023-05-03T05:47:38.240Z,25.20
2023-05-03T05:50:16.913Z,27.80
2023-05-03T05:52:53.210Z,23.00
2023-05-03T05:55:24.595Z,21.25
2023-05-03T05:57:56.815Z,24.00
2023-05-03T06:00:31.943Z,22.60
2023-05-03T06:03:00.713Z,21.40
2023-05-03T06:05:29.610Z,23.00
2023-05-03T06:07:58.291Z,28.75
2023-05-03T06:10:28.626Z,21.20
2023-05-03T06:12:58.933Z,23.25
2023-05-03T06:15:30.046Z,23.60
2023-05-03T06:17:59.644Z,24.00
2023-05-03T06:20:28.651Z,24.20
2023-05-03T06:22:58.453Z,22.20
2023-05-03T06:25:29.498Z,26.80
2023-05-03T06:27:58.329Z,15.00
2023-05-03T06:30:32.060Z,15.80
2023-05-03T06:33:06.966Z,13.40
2023-05-03T06:35:37.590Z,12.80
2023-05-03T06:38:06.191Z,12.00
2023-05-03T06:40:38.439Z,10.20
2023-05-03T06:43:07.269Z,11.40
2023-05-03T06:45:41.102Z,11.40
2023-05-03T06:48:10.073Z,12.00
2023-05-03T06:50:40.570Z,13.20
2023-05-03T06:53:09.420Z,10.40
2023-05-03T06:55:40.211Z,10.20
2023-05-03T06:58:10.238Z,10.00
2023-05-03T07:00:40.376Z,8.40
2023-05-03T07:03:09.317Z,9.60
2023-05-03T07:05:38.573Z,10.00
2023-05-03T07:08:07.455Z,10.00
2023-05-03T07:10:36.588Z,13.00
2023-05-03T07:13:06.598Z,9.60
2023-05-03T07:15:35.504Z,11.00
2023-05-03T07:18:04.659Z,10.00
2023-05-03T07:20:33.565Z,10.00
2023-05-03T07:23:02.265Z,11.00
2023-05-03T07:25:31.698Z,11.20
2023-05-03T07:28:00.675Z,10.00
2023-05-03T07:30:30.873Z,9.20
2023-05-03T07:32:59.595Z,10.80
2023-05-03T07:35:28.592Z,8.60
2023-05-03T07:37:57.765Z,8.00
2023-05-03T07:40:28.810Z,11.40
2023-05-03T07:42:57.387Z,7.00
2023-05-03T07:45:27.129Z,8.00
2023-05-03T07:47:57.839Z,11.40
2023-05-03T07:50:27.144Z,8.20
2023-05-03T07:52:56.613Z,9.60
2023-05-03T07:55:26.823Z,9.80
2023-05-03T07:57:58.927Z,11.40
2023-05-03T08:00:28.385Z,8.20
2023-05-03T08:02:58.742Z,8.20
2023-05-03T08:05:27.870Z,7.40
2023-05-03T08:07:56.748Z,7.60
2023-05-03T08:10:26.299Z,10.80
2023-05-03T08:12:54.923Z,11.40
2023-05-03T08:15:23.918Z,9.60
2023-05-03T08:17:52.730Z,11.40
2023-05-03T08:20:23.277Z,12.20
2023-05-03T08:22:52.489Z,10.80
2023-05-03T08:25:22.453Z,9.40
2023-05-03T08:27:51.082Z,11.20
2023-05-03T08:30:22.015Z,9.00
2023-05-03T08:32:51.598Z,11.60
2023-05-03T08:35:20.663Z,10.60
2023-05-03T08:37:50.669Z,10.20
2023-05-03T08:40:23.149Z,11.80
2023-05-03T08:42:51.806Z,10.20
2023-05-03T08:45:20.873Z,10.40
2023-05-03T08:47:55.343Z,12.00
2023-05-03T08:50:25.898Z,8.60
2023-05-03T08:52:56.251Z,9.00
2023-05-03T08:55:25.249Z,9.60
2023-05-03T08:57:53.812Z,10.40
2023-05-03T09:00:30.026Z,10.00
2023-05-03T09:03:01.204Z,10.60
2023-05-03T09:05:34.932Z,9.60
2023-05-03T09:08:07.205Z,9.20
2023-05-03T09:10:39.612Z,9.40
2023-05-03T09:13:09.113Z,9.40
2023-05-03T09:15:38.489Z,10.00
2023-05-03T09:18:16.165Z,10.60
2023-05-03T09:20:51.791Z,12.80
2023-05-03T09:23:32.817Z,10.40
2023-05-03T09:26:02.074Z,10.00
2023-05-03T09:28:30.789Z,10.40
2023-05-03T09:31:07.682Z,10.00
2023-05-03T09:33:36.664Z,10.40
2023-05-03T09:36:07.211Z,10.60
2023-05-03T09:38:37.847Z,10.40
2023-05-03T09:41:07.078Z,10.80
2023-05-03T09:43:37.001Z,10.00
2023-05-03T09:46:10.778Z,10.80
2023-05-03T09:48:40.288Z,14.20
2023-05-03T09:51:11.487Z,11.60
2023-05-03T09:53:42.634Z,12.00
2023-05-03T09:56:13.729Z,12.40
2023-05-03T09:58:43.832Z,10.80
2023-05-03T10:01:13.673Z,12.80
2023-05-03T10:03:44.658Z,12.40
2023-05-03T10:06:23.911Z,14.20
2023-05-03T10:09:02.296Z,12.40
2023-05-03T10:11:31.199Z,12.00
2023-05-03T10:14:00.299Z,12.60
2023-05-03T10:16:34.390Z,12.20
2023-05-03T10:19:14.070Z,12.20
2023-05-03T10:21:55.838Z,12.20
2023-05-03T10:24:25.961Z,12.80
2023-05-03T10:26:57.586Z,13.60
2023-05-03T10:29:52.438Z,11.60
2023-05-03T10:32:36.141Z,14.40
2023-05-03T10:35:09.347Z,13.20
2023-05-03T10:37:41.320Z,12.00
2023-05-03T10:40:15.173Z,13.20
2023-05-03T10:42:46.356Z,15.20
2023-05-03T10:45:27.015Z,11.20
2023-05-03T10:48:20.731Z,12.40
2023-05-03T10:50:51.658Z,11.40
2023-05-03T10:53:40.080Z,12.40
2023-05-03T10:56:11.503Z,9.20
2023-05-03T10:58:48.156Z,12.00
2023-05-03T11:01:20.038Z,10.60
2023-05-03T11:03:53.417Z,12.40
2023-05-03T11:06:29.339Z,12.00
2023-05-03T11:08:58.424Z,15.20
2023-05-03T11:11:28.553Z,13.80
2023-05-03T11:13:57.762Z,11.80
2023-05-03T11:16:27.389Z,11.00
2023-05-03T11:18:56.687Z,12.20
2023-05-03T11:21:25.349Z,14.00
2023-05-03T11:23:54.384Z,16.00
2023-05-03T11:26:26.279Z,13.40
2023-05-03T11:28:57.152Z,11.00
2023-05-03T11:31:26.064Z,13.60
2023-05-03T11:33:55.353Z,10.60
2023-05-03T11:36:24.087Z,13.20
2023-05-03T11:38:53.018Z,13.00
2023-05-03T11:41:21.740Z,13.00
2023-05-03T11:43:57.804Z,10.20
2023-05-03T11:46:40.745Z,11.00
2023-05-03T11:49:11.040Z,10.80
2023-05-03T11:51:39.877Z,12.40
2023-05-03T11:54:21.094Z,11.00
2023-05-03T11:56:57.912Z,10.00
2023-05-03T11:59:38.408Z,9.60
2023-05-03T12:02:11.243Z,11.40
2023-05-03T12:04:43.234Z,11.80
2023-05-03T12:07:15.030Z,9.80
2023-05-03T12:09:53.215Z,10.20
2023-05-03T12:12:32.164Z,12.00
2023-05-03T12:15:07.823Z,10.00
2023-05-03T12:17:43.485Z,8.20
2023-05-03T12:22:52.599Z,12.40
2023-05-03T12:25:27.331Z,12.00
2023-05-03T12:28:17.665Z,10.00
2023-05-03T12:30:48.125Z,10.40
2023-05-03T12:33:21.954Z,11.80
2023-05-03T12:35:53.547Z,14.00
2023-05-03T12:38:24.489Z,12.00
2023-05-03T12:40:54.998Z,14.60
2023-05-03T12:43:23.832Z,14.00
2023-05-03T12:46:09.398Z,12.80
2023-05-03T12:48:46.176Z,13.20
2023-05-03T12:53:48.014Z,11.60
2023-05-03T12:56:17.659Z,10.60
2023-05-03T13:02:06.001Z,13.40
2023-05-03T13:06:45.615Z,7.60
2023-05-03T13:09:20.664Z,9.80
2023-05-03T13:11:52.430Z,8.60
2023-05-03T13:14:22.168Z,9.40
2023-05-03T13:16:51.568Z,7.80
2023-05-03T13:19:22.231Z,9.20
2023-05-03T13:21:51.208Z,12.80
2023-05-03T13:24:19.778Z,10.60
2023-05-03T13:26:48.643Z,7.60
2023-05-03T13:29:17.306Z,9.40
2023-05-03T13:31:46.191Z,7.40
2023-05-03T13:34:14.801Z,7.60
2023-05-03T13:36:45.197Z,8.20
2023-05-03T13:39:13.862Z,7.40
2023-05-03T13:41:43.547Z,9.40
2023-05-03T13:44:12.652Z,8.60
2023-05-03T13:46:43.293Z,8.60
2023-05-03T13:49:12.103Z,8.20
2023-05-03T13:51:41.358Z,11.80
2023-05-03T13:54:11.470Z,8.00
2023-05-03T13:56:41.648Z,11.60
2023-05-03T13:59:10.803Z,7.80
2023-05-03T14:01:39.860Z,9.60
2023-05-03T14:04:10.218Z,8.60
2023-05-03T14:06:41.217Z,7.60
2023-05-03T14:09:12.110Z,0.40
2023-05-03T14:11:42.123Z,10.40
2023-05-03T14:14:10.866Z,6.80
2023-05-03T14:16:41.989Z,10.20
2023-05-03T14:19:12.103Z,10.20
2023-05-03T14:21:42.983Z,9.80
2023-05-03T14:24:14.052Z,11.20
2023-05-03T14:26:43.131Z,11.40
2023-05-03T14:29:11.731Z,11.60
2023-05-03T14:31:41.073Z,11.00
2023-05-03T14:34:09.749Z,5.60
2023-05-03T14:36:43.690Z,11.00
2023-05-03T14:39:16.398Z,9.00
2023-05-03T14:41:45.426Z,14.00
2023-05-03T14:44:14.092Z,12.60
2023-05-03T14:46:43.387Z,10.60
2023-05-03T14:49:12.159Z,11.00
2023-05-03T14:51:44.130Z,9.40
2023-05-03T14:54:14.554Z,11.60
2023-05-03T14:56:43.644Z,11.40
2023-05-03T14:59:12.264Z,9.80
2023-05-03T15:01:41.271Z,8.40
2023-05-03T15:04:10.808Z,9.20
2023-05-03T15:06:41.223Z,10.40
2023-05-03T15:09:12.104Z,9.00
2023-05-03T15:11:42.614Z,9.20
2023-05-03T15:14:11.544Z,9.00
2023-05-03T15:16:40.673Z,11.40
2023-05-03T15:19:09.526Z,10.20
2023-05-03T15:21:48.644Z,12.00
2023-05-03T15:24:17.832Z,9.40
2023-05-03T15:26:48.289Z,10.60
2023-05-03T15:29:16.976Z,9.00
2023-05-03T15:31:46.280Z,14.80
2023-05-03T15:34:15.367Z,15.40
2023-05-03T15:36:44.287Z,13.00
2023-05-03T15:39:13.079Z,8.60
2023-05-03T15:41:42.009Z,13.00
2023-05-03T15:44:11.969Z,14.40
2023-05-03T15:46:42.804Z,17.00
2023-05-03T15:49:12.709Z,17.80
2023-05-03T15:51:41.953Z,14.80
2023-05-03T15:54:10.569Z,15.40
2023-05-03T15:56:40.212Z,16.40
2023-05-03T15:59:08.876Z,13.80
2023-05-03T16:01:39.209Z,14.60
2023-05-03T16:04:07.860Z,15.20
2023-05-03T16:06:36.706Z,15.20
2023-05-03T16:09:07.014Z,16.00
2023-05-03T16:11:36.269Z,15.80
2023-05-03T16:14:09.293Z,15.80
2023-05-03T16:16:40.389Z,16.00
2023-05-03T16:19:12.039Z,14.00
2023-05-03T16:21:40.921Z,16.60
2023-05-03T16:24:10.789Z,16.40
2023-05-03T16:26:40.850Z,31.25
2023-05-03T16:29:10.175Z,27.50
2023-05-03T16:31:40.510Z,22.60
2023-05-03T16:34:09.159Z,21.40
2023-05-03T16:36:42.850Z,16.40
2023-05-03T16:39:12.189Z,37.25
2023-05-03T16:41:41.648Z,22.20
2023-05-03T16:44:10.410Z,23.20
2023-05-03T16:46:41.203Z,23.20
2023-05-03T16:49:10.055Z,20.80
2023-05-03T16:51:40.683Z,20.20
2023-05-03T16:54:09.322Z,19.40
2023-05-03T16:56:38.234Z,21.60
2023-05-03T16:59:07.150Z,23.00
2023-05-03T17:01:36.193Z,22.00
2023-05-03T17:04:06.674Z,21.20
2023-05-03T17:06:36.870Z,29.50
2023-05-03T17:09:05.597Z,29.00
2023-05-03T17:11:36.111Z,29.50
2023-05-03T17:14:04.732Z,30.25
2023-05-03T17:16:33.437Z,25.75
2023-05-03T17:19:02.049Z,25.25
2023-05-03T17:21:32.586Z,28.00
2023-05-03T17:24:01.295Z,22.00
2023-05-03T17:26:30.156Z,54.00
2023-05-03T17:28:58.789Z,32.75
2023-05-03T17:31:28.079Z,29.25
2023-05-03T17:33:57.082Z,28.25
2023-05-03T17:36:26.132Z,27.50
2023-05-03T17:38:56.361Z,25.00
2023-05-03T17:41:25.273Z,30.50
2023-05-03T17:43:53.954Z,33.50
2023-05-03T17:46:22.937Z,31.00
2023-05-03T17:48:52.199Z,27.25
2023-05-03T17:51:21.814Z,21.75
2023-05-03T17:53:50.420Z,19.25
2023-05-03T17:56:21.375Z,23.20
2023-05-03T17:58:50.046Z,26.00
2023-05-03T18:01:18.935Z,27.25
2023-05-03T18:03:47.821Z,22.50
2023-05-03T18:06:17.243Z,28.75
2023-05-03T18:08:45.786Z,25.75
2023-05-03T18:11:14.730Z,24.00
2023-05-03T18:13:45.352Z,25.25
2023-05-03T18:16:14.743Z,61.75
2023-05-03T18:18:43.470Z,56.67
2023-05-03T18:21:12.540Z,68.00
2023-05-03T18:23:42.465Z,65.00
2023-05-03T18:26:12.041Z,34.25
2023-05-03T18:28:40.678Z,32.25
2023-05-03T18:31:12.606Z,30.00
2023-05-03T18:33:41.375Z,36.25
2023-05-03T18:36:11.886Z,23.50
2023-05-03T18:38:41.922Z,36.50
2023-05-03T18:41:14.218Z,35.75
2023-05-03T18:43:43.548Z,40.50
2023-05-03T18:46:18.661Z,29.50
2023-05-03T18:48:47.699Z,32.75
2023-05-03T18:51:17.188Z,22.40
2023-05-03T18:53:45.771Z,19.00
2023-05-03T18:56:14.700Z,23.00
2023-05-03T18:58:43.305Z,25.00
2023-05-03T19:01:13.760Z,22.80
2023-05-03T19:03:42.318Z,22.40
2023-05-03T19:06:11.451Z,22.60
2023-05-03T19:08:41.462Z,21.40
2023-05-03T19:11:11.189Z,21.00
2023-05-03T19:13:40.006Z,18.40
2023-05-03T19:16:09.207Z,16.60
2023-05-03T19:18:41.780Z,20.80
2023-05-03T19:21:12.132Z,17.40
2023-05-03T19:23:40.972Z,25.00
2023-05-03T19:26:10.038Z,25.00
2023-05-03T19:28:38.640Z,29.50
2023-05-03T19:31:07.693Z,25.25
2023-05-03T19:33:37.255Z,26.40
2023-05-03T19:36:08.267Z,23.20
2023-05-03T19:38:37.158Z,23.20
2023-05-03T19:41:08.388Z,23.80
2023-05-03T19:43:37.049Z,19.00
2023-05-03T19:46:06.665Z,21.60
2023-05-03T19:48:35.777Z,25.60
2023-05-03T19:51:05.908Z,21.40
2023-05-03T19:53:37.824Z,23.60
2023-05-03T19:56:07.476Z,21.80
2023-05-03T19:58:36.436Z,24.20
2023-05-03T20:01:06.147Z,20.20
2023-05-03T20:03:34.932Z,23.80
2023-05-03T20:06:04.007Z,21.20
2023-05-03T20:08:32.712Z,21.00
2023-05-03T20:11:03.225Z,23.60
2023-05-03T20:13:32.195Z,20.75
2023-05-03T20:16:04.926Z,22.00
2023-05-03T20:18:33.539Z,26.00
2023-05-03T20:21:03.404Z,26.25
2023-05-03T20:23:32.228Z,27.75
2023-05-03T20:26:02.668Z,29.25
2023-05-03T20:28:32.653Z,31.50
2023-05-03T20:31:01.829Z,29.50
2023-05-03T20:33:30.444Z,25.00
2023-05-03T20:35:59.514Z,26.75
2023-05-03T20:38:28.096Z,25.75
2023-05-03T20:40:57.230Z,25.60
2023-05-03T20:43:27.208Z,33.50
2023-05-03T20:45:56.525Z,27.00
2023-05-03T20:48:25.266Z,26.20
2023-05-03T20:50:54.259Z,27.00
2023-05-03T20:53:22.806Z,24.00
2023-05-03T20:55:56.511Z,26.40
2023-05-03T20:58:26.595Z,26.50
2023-05-03T21:00:57.614Z,30.00
2023-05-03T21:03:26.723Z,26.00
2023-05-03T21:05:56.506Z,26.00
2023-05-03T21:08:25.653Z,25.00
2023-05-03T21:10:55.161Z,21.60
2023-05-03T21:13:23.774Z,26.80
2023-05-03T21:15:54.268Z,26.25
2023-05-03T21:18:22.932Z,26.25
2023-05-03T21:20:53.966Z,28.25
2023-05-03T21:23:22.661Z,28.25
2023-05-03T21:25:53.738Z,22.40
2023-05-03T21:28:24.116Z,25.80
2023-05-03T21:30:55.463Z,21.00
2023-05-03T21:33:24.717Z,27.00
2023-05-03T21:35:53.760Z,26.20
2023-05-03T21:38:22.368Z,25.20
2023-05-03T21:40:51.631Z,24.80
2023-05-03T21:43:20.247Z,24.00
2023-05-03T21:45:50.168Z,23.60
2023-05-03T21:48:20.118Z,19.80
2023-05-03T21:50:49.027Z,22.80
2023-05-03T21:53:17.759Z,20.40
2023-05-03T21:55:47.292Z,19.80
2023-05-03T21:58:16.067Z,21.80
2023-05-03T22:00:45.072Z,20.60
2023-05-03T22:03:15.072Z,21.20
2023-05-03T22:05:47.893Z,22.40
2023-05-03T22:08:18.236Z,19.60
2023-05-03T22:10:47.206Z,19.80
2023-05-03T22:13:15.943Z,20.80
2023-05-03T22:15:44.978Z,20.60
2023-05-03T22:18:13.607Z,22.40
2023-05-03T22:20:42.422Z,18.00
2023-05-03T22:23:12.492Z,21.60
2023-05-03T22:25:41.523Z,20.20
2023-05-03T22:28:10.126Z,20.20
2023-05-03T22:30:39.105Z,21.60
2023-05-03T22:33:08.077Z,22.80
2023-05-03T22:35:37.064Z,19.40
2023-05-03T22:38:06.523Z,20.40
2023-05-03T22:40:36.790Z,19.00
2023-05-03T22:43:06.507Z,23.00
2023-05-03T22:45:35.552Z,21.80
2023-05-03T22:48:04.340Z,18.00
2023-05-03T22:50:33.297Z,18.80
2023-05-03T22:53:02.251Z,21.20
2023-05-03T22:55:31.280Z,19.40
2023-05-03T22:58:01.233Z,19.40
2023-05-03T23:00:30.075Z,20.40
2023-05-03T23:02:58.933Z,20.20
2023-05-03T23:05:28.161Z,20.00
2023-05-03T23:07:56.839Z,21.60
2023-05-03T23:10:25.834Z,20.00
2023-05-03T23:12:54.924Z,19.60
2023-05-03T23:15:25.203Z,20.40
2023-05-03T23:17:53.805Z,19.80
2023-05-03T23:20:23.386Z,20.40
2023-05-03T23:22:51.945Z,24.80
2023-05-03T23:25:21.184Z,23.20
2023-05-03T23:27:50.258Z,26.20
2023-05-03T23:30:19.498Z,21.20
2023-05-03T23:32:50.218Z,23.00
2023-05-03T23:35:19.959Z,23.00
2023-05-03T23:37:48.566Z,21.40
2023-05-03T23:40:17.771Z,23.60
2023-05-03T23:42:46.780Z,18.40
2023-05-03T23:45:15.828Z,21.00
2023-05-03T23:47:44.432Z,20.60
2023-05-03T23:50:14.802Z,21.40
2023-05-03T23:52:43.672Z,23.00
2023-05-03T23:55:13.208Z,20.60
2023-05-03T23:57:41.686Z,18.80
